sensor_id;sensor_type;location;lat;lon;timestamp;P1;durP1;ratioP1;P2;durP2;ratioP2
8642;SDS011;4359;49.358;11.256;2023-07-13T00:02:06;7.90;;;5.28;;
8642;SDS011;4359;49.358;11.256;2023-07-13T00:04:32;7.22;;;4.45;;
8642;SDS011;4359;49.358;11.256;2023-07-13T00:06:57;5.32;;;4.15;;
8642;SDS011;4359;49.358;11.256;2023-07-13T00:09:23;7.15;;;5.05;;
8642;SDS011;4359;49.358;11.256;2023-07-13T00:11:58;8.48;;;4.90;;
8642;SDS011;4359;49.358;11.256;2023-07-13T00:14:24;9.48;;;5.57;;
8642;SDS011;4359;49.358;11.256;2023-07-13T00:16:51;9.05;;;5.20;;
8642;SDS011;4359;49.358;11.256;2023-07-13T00:19:17;6.75;;;4.80;;
8642;SDS011;4359;49.358;11.256;2023-07-13T00:21:43;7.93;;;5.03;;
8642;SDS011;4359;49.358;11.256;2023-07-13T00:24:10;9.60;;;4.72;;
8642;SDS011;4359;49.358;11.256;2023-07-13T00:26:38;8.75;;;5.07;;
8642;SDS011;4359;49.358;11.256;2023-07-13T00:29:04;9.60;;;4.68;;
8642;SDS011;4359;49.358;11.256;2023-07-13T00:31:33;8.57;;;5.15;;
8642;SDS011;4359;49.358;11.256;2023-07-13T00:34:00;7.70;;;4.90;;
8642;SDS011;4359;49.358;11.256;2023-07-13T00:36:26;8.32;;;4.93;;
8642;SDS011;4359;49.358;11.256;2023-07-13T00:38:52;7.15;;;5.00;;
8642;SDS011;4359;49.358;11.256;2023-07-13T00:41:17;7.80;;;4.65;;
8642;SDS011;4359;49.358;11.256;2023-07-13T00:43:44;8.20;;;4.80;;
8642;SDS011;4359;49.358;11.256;2023-07-13T00:46:32;8.25;;;4.72;;
8642;SDS011;4359;49.358;11.256;2023-07-13T00:48:59;7.53;;;4.55;;
8642;SDS011;4359;49.358;11.256;2023-07-13T00:51:38;6.15;;;4.85;;
8642;SDS011;4359;49.358;11.256;2023-07-13T00:54:09;8.95;;;4.75;;
8642;SDS011;4359;49.358;11.256;2023-07-13T00:56:39;8.85;;;5.10;;
8642;SDS011;4359;49.358;11.256;2023-07-13T00:59:08;8.05;;;4.20;;
8642;SDS011;4359;49.358;11.256;2023-07-13T01:01:37;6.25;;;4.20;;
8642;SDS011;4359;49.358;11.256;2023-07-13T01:04:03;7.45;;;4.50;;
8642;SDS011;4359;49.358;11.256;2023-07-13T01:06:32;7.03;;;4.60;;
8642;SDS011;4359;49.358;11.256;2023-07-13T01:09:00;7.32;;;4.55;;
8642;SDS011;4359;49.358;11.256;2023-07-13T01:11:26;8.40;;;4.57;;
8642;SDS011;4359;49.358;11.256;2023-07-13T01:13:52;14.60;;;5.53;;
8642;SDS011;4359;49.358;11.256;2023-07-13T01:16:26;5.53;;;4.38;;
8642;SDS011;4359;49.358;11.256;2023-07-13T01:18:54;8.90;;;4.68;;
8642;SDS011;4359;49.358;11.256;2023-07-13T01:21:24;6.07;;;4.28;;
8642;SDS011;4359;49.358;11.256;2023-07-13T01:23:50;6.88;;;4.47;;
8642;SDS011;4359;49.358;11.256;2023-07-13T01:26:16;6.30;;;4.40;;
8642;SDS011;4359;49.358;11.256;2023-07-13T01:28:42;7.22;;;5.18;;
8642;SDS011;4359;49.358;11.256;2023-07-13T01:31:08;10.25;;;5.55;;
8642;SDS011;4359;49.358;11.256;2023-07-13T01:33:36;7.72;;;5.15;;
8642;SDS011;4359;49.358;11.256;2023-07-13T01:36:03;11.05;;;6.32;;
8642;SDS011;4359;49.358;11.256;2023-07-13T01:38:28;7.47;;;5.40;;
8642;SDS011;4359;49.358;11.256;2023-07-13T01:40:54;6.95;;;5.15;;
8642;SDS011;4359;49.358;11.256;2023-07-13T01:43:20;9.40;;;5.20;;
8642;SDS011;4359;49.358;11.256;2023-07-13T01:45:46;10.38;;;5.10;;
8642;SDS011;4359;49.358;11.256;2023-07-13T01:48:12;6.55;;;5.05;;
8642;SDS011;4359;49.358;11.256;2023-07-13T01:50:38;8.07;;;4.90;;
8642;SDS011;4359;49.358;11.256;2023-07-13T01:53:05;8.57;;;4.70;;
8642;SDS011;4359;49.358;11.256;2023-07-13T01:55:30;6.35;;;4.32;;
8642;SDS011;4359;49.358;11.256;2023-07-13T01:57:56;7.90;;;4.68;;
8642;SDS011;4359;49.358;11.256;2023-07-13T02:00:22;7.65;;;5.00;;
8642;SDS011;4359;49.358;11.256;2023-07-13T02:02:49;6.57;;;4.88;;
8642;SDS011;4359;49.358;11.256;2023-07-13T02:05:15;8.13;;;5.10;;
8642;SDS011;4359;49.358;11.256;2023-07-13T02:07:41;10.77;;;4.90;;
8642;SDS011;4359;49.358;11.256;2023-07-13T02:10:08;8.02;;;5.15;;
8642;SDS011;4359;49.358;11.256;2023-07-13T02:12:34;7.47;;;4.85;;
8642;SDS011;4359;49.358;11.256;2023-07-13T02:15:01;10.63;;;4.95;;
8642;SDS011;4359;49.358;11.256;2023-07-13T02:17:27;6.95;;;5.05;;
8642;SDS011;4359;49.358;11.256;2023-07-13T02:19:52;7.38;;;5.00;;
8642;SDS011;4359;49.358;11.256;2023-07-13T02:22:19;7.80;;;5.03;;
8642;SDS011;4359;49.358;11.256;2023-07-13T02:24:45;9.00;;;5.38;;
8642;SDS011;4359;49.358;11.256;2023-07-13T02:27:11;11.23;;;4.82;;
8642;SDS011;4359;49.358;11.256;2023-07-13T02:29:36;14.07;;;5.15;;
8642;SDS011;4359;49.358;11.256;2023-07-13T02:32:02;10.50;;;5.07;;
8642;SDS011;4359;49.358;11.256;2023-07-13T02:34:29;6.93;;;5.38;;
8642;SDS011;4359;49.358;11.256;2023-07-13T02:36:55;7.68;;;5.30;;
8642;SDS011;4359;49.358;11.256;2023-07-13T02:39:21;7.32;;;5.55;;
8642;SDS011;4359;49.358;11.256;2023-07-13T02:41:46;9.82;;;5.78;;
8642;SDS011;4359;49.358;11.256;2023-07-13T02:44:12;10.27;;;5.70;;
8642;SDS011;4359;49.358;11.256;2023-07-13T02:46:39;9.23;;;5.03;;
8642;SDS011;4359;49.358;11.256;2023-07-13T02:49:05;7.28;;;5.20;;
8642;SDS011;4359;49.358;11.256;2023-07-13T02:51:31;9.68;;;5.80;;
8642;SDS011;4359;49.358;11.256;2023-07-13T02:53:59;5.88;;;4.90;;
8642;SDS011;4359;49.358;11.256;2023-07-13T02:56:26;6.63;;;4.65;;
8642;SDS011;4359;49.358;11.256;2023-07-13T02:58:52;7.90;;;5.00;;
8642;SDS011;4359;49.358;11.256;2023-07-13T03:01:19;6.85;;;5.20;;
8642;SDS011;4359;49.358;11.256;2023-07-13T03:03:46;9.45;;;5.90;;
8642;SDS011;4359;49.358;11.256;2023-07-13T03:06:13;11.45;;;5.10;;
8642;SDS011;4359;49.358;11.256;2023-07-13T03:08:39;8.45;;;6.10;;
8642;SDS011;4359;49.358;11.256;2023-07-13T03:11:06;10.82;;;5.63;;
8642;SDS011;4359;49.358;11.256;2023-07-13T03:13:35;8.93;;;5.65;;
8642;SDS011;4359;49.358;11.256;2023-07-13T03:16:02;10.63;;;5.32;;
8642;SDS011;4359;49.358;11.256;2023-07-13T03:18:27;7.65;;;5.47;;
8642;SDS011;4359;49.358;11.256;2023-07-13T03:20:54;8.77;;;5.43;;
8642;SDS011;4359;49.358;11.256;2023-07-13T03:23:19;11.55;;;6.03;;
8642;SDS011;4359;49.358;11.256;2023-07-13T03:25:46;9.23;;;6.25;;
8642;SDS011;4359;49.358;11.256;2023-07-13T03:28:12;9.10;;;6.35;;
8642;SDS011;4359;49.358;11.256;2023-07-13T03:30:38;8.70;;;5.40;;
8642;SDS011;4359;49.358;11.256;2023-07-13T03:33:04;9.57;;;5.88;;
8642;SDS011;4359;49.358;11.256;2023-07-13T03:35:30;8.20;;;5.70;;
8642;SDS011;4359;49.358;11.256;2023-07-13T03:37:57;7.20;;;5.72;;
8642;SDS011;4359;49.358;11.256;2023-07-13T03:40:24;10.02;;;5.20;;
8642;SDS011;4359;49.358;11.256;2023-07-13T03:42:51;8.10;;;5.75;;
8642;SDS011;4359;49.358;11.256;2023-07-13T03:45:17;10.10;;;5.65;;
8642;SDS011;4359;49.358;11.256;2023-07-13T03:47:43;7.60;;;5.40;;
8642;SDS011;4359;49.358;11.256;2023-07-13T03:50:09;6.95;;;5.05;;
8642;SDS011;4359;49.358;11.256;2023-07-13T03:52:35;7.15;;;5.15;;
8642;SDS011;4359;49.358;11.256;2023-07-13T03:55:00;6.47;;;5.03;;
8642;SDS011;4359;49.358;11.256;2023-07-13T03:57:26;9.15;;;5.20;;
8642;SDS011;4359;49.358;11.256;2023-07-13T03:59:52;7.75;;;5.45;;
8642;SDS011;4359;49.358;11.256;2023-07-13T04:02:18;8.55;;;5.47;;
8642;SDS011;4359;49.358;11.256;2023-07-13T04:04:43;10.60;;;5.70;;
8642;SDS011;4359;49.358;11.256;2023-07-13T04:07:09;11.10;;;5.18;;
8642;SDS011;4359;49.358;11.256;2023-07-13T04:09:35;7.85;;;4.90;;
8642;SDS011;4359;49.358;11.256;2023-07-13T04:12:01;8.57;;;5.40;;
8642;SDS011;4359;49.358;11.256;2023-07-13T04:14:27;6.78;;;4.70;;
8642;SDS011;4359;49.358;11.256;2023-07-13T04:16:53;11.80;;;5.40;;
8642;SDS011;4359;49.358;11.256;2023-07-13T04:19:20;7.38;;;4.68;;
8642;SDS011;4359;49.358;11.256;2023-07-13T04:21:46;7.13;;;4.32;;
8642;SDS011;4359;49.358;11.256;2023-07-13T04:24:12;8.32;;;4.65;;
8642;SDS011;4359;49.358;11.256;2023-07-13T04:26:38;9.55;;;4.88;;
8642;SDS011;4359;49.358;11.256;2023-07-13T04:29:04;12.02;;;5.10;;
8642;SDS011;4359;49.358;11.256;2023-07-13T04:31:31;8.43;;;4.60;;
8642;SDS011;4359;49.358;11.256;2023-07-13T04:33:57;7.32;;;4.40;;
8642;SDS011;4359;49.358;11.256;2023-07-13T04:36:23;15.07;;;4.13;;
8642;SDS011;4359;49.358;11.256;2023-07-13T04:38:52;5.45;;;3.78;;
8642;SDS011;4359;49.358;11.256;2023-07-13T04:41:19;6.20;;;3.67;;
8642;SDS011;4359;49.358;11.256;2023-07-13T04:43:45;7.35;;;3.97;;
8642;SDS011;4359;49.358;11.256;2023-07-13T04:46:12;5.07;;;3.22;;
8642;SDS011;4359;49.358;11.256;2023-07-13T04:48:39;8.93;;;3.47;;
8642;SDS011;4359;49.358;11.256;2023-07-13T04:51:05;5.53;;;3.40;;
8642;SDS011;4359;49.358;11.256;2023-07-13T04:53:32;5.07;;;3.50;;
8642;SDS011;4359;49.358;11.256;2023-07-13T04:55:59;5.53;;;3.70;;
8642;SDS011;4359;49.358;11.256;2023-07-13T04:58:25;8.95;;;3.72;;
8642;SDS011;4359;49.358;11.256;2023-07-13T05:00:52;5.93;;;3.60;;
8642;SDS011;4359;49.358;11.256;2023-07-13T05:03:18;6.72;;;3.53;;
8642;SDS011;4359;49.358;11.256;2023-07-13T05:05:54;5.50;;;3.20;;
8642;SDS011;4359;49.358;11.256;2023-07-13T05:08:24;5.22;;;2.75;;
8642;SDS011;4359;49.358;11.256;2023-07-13T05:10:51;4.55;;;2.45;;
8642;SDS011;4359;49.358;11.256;2023-07-13T05:13:17;4.53;;;2.33;;
8642;SDS011;4359;49.358;11.256;2023-07-13T05:15:43;5.05;;;2.47;;
8642;SDS011;4359;49.358;11.256;2023-07-13T05:18:08;5.70;;;2.38;;
8642;SDS011;4359;49.358;11.256;2023-07-13T05:20:34;6.15;;;2.10;;
8642;SDS011;4359;49.358;11.256;2023-07-13T05:23:00;3.42;;;1.92;;
8642;SDS011;4359;49.358;11.256;2023-07-13T05:25:28;4.78;;;2.00;;
8642;SDS011;4359;49.358;11.256;2023-07-13T05:27:54;7.28;;;1.98;;
8642;SDS011;4359;49.358;11.256;2023-07-13T05:30:20;5.88;;;1.90;;
8642;SDS011;4359;49.358;11.256;2023-07-13T05:32:45;5.82;;;1.55;;
8642;SDS011;4359;49.358;11.256;2023-07-13T05:35:11;6.57;;;2.30;;
8642;SDS011;4359;49.358;11.256;2023-07-13T05:37:37;8.02;;;1.60;;
8642;SDS011;4359;49.358;11.256;2023-07-13T05:40:03;3.63;;;1.50;;
8642;SDS011;4359;49.358;11.256;2023-07-13T05:42:29;4.68;;;1.55;;
8642;SDS011;4359;49.358;11.256;2023-07-13T05:44:56;2.92;;;1.40;;
8642;SDS011;4359;49.358;11.256;2023-07-13T05:47:22;4.15;;;1.42;;
8642;SDS011;4359;49.358;11.256;2023-07-13T05:49:48;6.03;;;1.55;;
8642;SDS011;4359;49.358;11.256;2023-07-13T05:52:13;10.05;;;1.95;;
8642;SDS011;4359;49.358;11.256;2023-07-13T05:54:39;7.20;;;1.40;;
8642;SDS011;4359;49.358;11.256;2023-07-13T05:57:04;5.50;;;1.60;;
8642;SDS011;4359;49.358;11.256;2023-07-13T05:59:30;4.30;;;1.20;;
8642;SDS011;4359;49.358;11.256;2023-07-13T06:01:56;7.38;;;1.30;;
8642;SDS011;4359;49.358;11.256;2023-07-13T06:04:22;4.45;;;1.38;;
8642;SDS011;4359;49.358;11.256;2023-07-13T06:06:47;2.65;;;1.23;;
8642;SDS011;4359;49.358;11.256;2023-07-13T06:09:13;3.38;;;1.10;;
8642;SDS011;4359;49.358;11.256;2023-07-13T06:11:38;5.78;;;1.52;;
8642;SDS011;4359;49.358;11.256;2023-07-13T06:14:04;6.50;;;1.17;;
8642;SDS011;4359;49.358;11.256;2023-07-13T06:16:30;5.75;;;1.40;;
8642;SDS011;4359;49.358;11.256;2023-07-13T06:18:55;4.85;;;1.17;;
8642;SDS011;4359;49.358;11.256;2023-07-13T06:21:22;4.70;;;1.38;;
8642;SDS011;4359;49.358;11.256;2023-07-13T06:23:49;3.80;;;1.40;;
8642;SDS011;4359;49.358;11.256;2023-07-13T06:26:16;4.80;;;1.40;;
8642;SDS011;4359;49.358;11.256;2023-07-13T06:28:46;4.22;;;1.15;;
8642;SDS011;4359;49.358;11.256;2023-07-13T06:31:12;9.23;;;1.60;;
8642;SDS011;4359;49.358;11.256;2023-07-13T06:33:39;8.75;;;1.40;;
8642;SDS011;4359;49.358;11.256;2023-07-13T06:36:05;4.20;;;1.40;;
8642;SDS011;4359;49.358;11.256;2023-07-13T06:38:32;6.38;;;1.13;;
8642;SDS011;4359;49.358;11.256;2023-07-13T06:40:58;4.75;;;1.15;;
8642;SDS011;4359;49.358;11.256;2023-07-13T06:43:24;4.28;;;1.30;;
8642;SDS011;4359;49.358;11.256;2023-07-13T06:45:50;4.05;;;1.27;;
8642;SDS011;4359;49.358;11.256;2023-07-13T06:48:16;13.15;;;2.35;;
8642;SDS011;4359;49.358;11.256;2023-07-13T06:50:43;5.88;;;1.50;;
8642;SDS011;4359;49.358;11.256;2023-07-13T06:53:10;3.78;;;1.05;;
8642;SDS011;4359;49.358;11.256;2023-07-13T06:55:37;7.93;;;1.33;;
8642;SDS011;4359;49.358;11.256;2023-07-13T06:58:03;4.35;;;1.00;;
8642;SDS011;4359;49.358;11.256;2023-07-13T07:00:29;4.40;;;1.40;;
8642;SDS011;4359;49.358;11.256;2023-07-13T07:02:55;7.57;;;1.27;;
8642;SDS011;4359;49.358;11.256;2023-07-13T07:05:24;6.00;;;1.10;;
8642;SDS011;4359;49.358;11.256;2023-07-13T07:07:50;3.42;;;1.20;;
8642;SDS011;4359;49.358;11.256;2023-07-13T07:10:17;5.10;;;1.38;;
8642;SDS011;4359;49.358;11.256;2023-07-13T07:12:43;5.30;;;1.85;;
8642;SDS011;4359;49.358;11.256;2023-07-13T07:15:09;5.97;;;1.10;;
8642;SDS011;4359;49.358;11.256;2023-07-13T07:17:39;5.80;;;1.40;;
8642;SDS011;4359;49.358;11.256;2023-07-13T07:20:05;5.32;;;1.30;;
8642;SDS011;4359;49.358;11.256;2023-07-13T07:22:31;5.78;;;1.30;;
8642;SDS011;4359;49.358;11.256;2023-07-13T07:24:57;5.72;;;1.10;;
8642;SDS011;4359;49.358;11.256;2023-07-13T07:27:23;7.10;;;1.10;;
8642;SDS011;4359;49.358;11.256;2023-07-13T07:29:49;3.67;;;1.17;;
8642;SDS011;4359;49.358;11.256;2023-07-13T07:32:15;8.63;;;1.55;;
8642;SDS011;4359;49.358;11.256;2023-07-13T07:34:41;5.20;;;1.52;;
8642;SDS011;4359;49.358;11.256;2023-07-13T07:37:09;6.90;;;1.48;;
8642;SDS011;4359;49.358;11.256;2023-07-13T07:39:36;6.55;;;1.13;;
8642;SDS011;4359;49.358;11.256;2023-07-13T07:42:03;7.20;;;1.27;;
8642;SDS011;4359;49.358;11.256;2023-07-13T07:44:30;7.35;;;1.33;;
8642;SDS011;4359;49.358;11.256;2023-07-13T07:46:56;8.80;;;1.88;;
8642;SDS011;4359;49.358;11.256;2023-07-13T07:49:21;6.10;;;1.40;;
8642;SDS011;4359;49.358;11.256;2023-07-13T07:51:47;7.35;;;1.25;;
8642;SDS011;4359;49.358;11.256;2023-07-13T07:54:13;8.30;;;1.50;;
8642;SDS011;4359;49.358;11.256;2023-07-13T07:56:39;4.32;;;1.20;;
8642;SDS011;4359;49.358;11.256;2023-07-13T07:59:05;6.00;;;1.50;;
8642;SDS011;4359;49.358;11.256;2023-07-13T08:01:31;4.40;;;1.23;;
8642;SDS011;4359;49.358;11.256;2023-07-13T08:03:56;6.30;;;1.50;;
8642;SDS011;4359;49.358;11.256;2023-07-13T08:06:22;3.45;;;1.15;;
8642;SDS011;4359;49.358;11.256;2023-07-13T08:08:48;7.13;;;1.25;;
8642;SDS011;4359;49.358;11.256;2023-07-13T08:11:14;3.95;;;1.20;;
8642;SDS011;4359;49.358;11.256;2023-07-13T08:13:39;4.85;;;1.45;;
8642;SDS011;4359;49.358;11.256;2023-07-13T08:16:05;6.90;;;1.30;;
8642;SDS011;4359;49.358;11.256;2023-07-13T08:18:31;5.47;;;1.27;;
8642;SDS011;4359;49.358;11.256;2023-07-13T08:20:57;3.95;;;1.13;;
8642;SDS011;4359;49.358;11.256;2023-07-13T08:23:24;6.43;;;1.50;;
8642;SDS011;4359;49.358;11.256;2023-07-13T08:25:53;7.97;;;1.50;;
8642;SDS011;4359;49.358;11.256;2023-07-13T08:28:20;3.88;;;1.30;;
8642;SDS011;4359;49.358;11.256;2023-07-13T08:30:46;4.35;;;1.30;;
8642;SDS011;4359;49.358;11.256;2023-07-13T08:33:14;5.47;;;1.27;;
8642;SDS011;4359;49.358;11.256;2023-07-13T08:35:47;8.18;;;1.20;;
8642;SDS011;4359;49.358;11.256;2023-07-13T08:38:14;6.82;;;1.30;;
8642;SDS011;4359;49.358;11.256;2023-07-13T08:40:40;4.53;;;1.23;;
8642;SDS011;4359;49.358;11.256;2023-07-13T08:43:08;4.63;;;1.00;;
8642;SDS011;4359;49.358;11.256;2023-07-13T08:51:38;6.18;;;1.10;;
8642;SDS011;4359;49.358;11.256;2023-07-13T08:54:33;9.38;;;1.10;;
8642;SDS011;4359;49.358;11.256;2023-07-13T08:57:05;3.22;;;0.88;;
8642;SDS011;4359;49.358;11.256;2023-07-13T08:59:39;2.70;;;0.90;;
8642;SDS011;4359;49.358;11.256;2023-07-13T09:04:45;4.63;;;0.90;;
8642;SDS011;4359;49.358;11.256;2023-07-13T09:07:24;3.40;;;0.70;;
8642;SDS011;4359;49.358;11.256;2023-07-13T09:10:11;2.15;;;0.80;;
8642;SDS011;4359;49.358;11.256;2023-07-13T09:12:56;3.05;;;0.90;;
8642;SDS011;4359;49.358;11.256;2023-07-13T09:15:30;3.90;;;1.10;;
8642;SDS011;4359;49.358;11.256;2023-07-13T09:17:59;3.53;;;1.25;;
8642;SDS011;4359;49.358;11.256;2023-07-13T09:20:42;2.88;;;0.90;;
8642;SDS011;4359;49.358;11.256;2023-07-13T09:23:18;5.00;;;1.00;;
8642;SDS011;4359;49.358;11.256;2023-07-13T09:25:49;2.95;;;0.93;;
8642;SDS011;4359;49.358;11.256;2023-07-13T09:28:28;4.60;;;0.88;;
8642;SDS011;4359;49.358;11.256;2023-07-13T09:33:35;5.30;;;0.90;;
8642;SDS011;4359;49.358;11.256;2023-07-13T09:36:01;4.50;;;0.77;;
8642;SDS011;4359;49.358;11.256;2023-07-13T09:38:42;3.97;;;1.00;;
8642;SDS011;4359;49.358;11.256;2023-07-13T09:46:34;3.08;;;1.20;;
8642;SDS011;4359;49.358;11.256;2023-07-13T09:49:00;5.05;;;1.00;;
8642;SDS011;4359;49.358;11.256;2023-07-13T09:51:26;5.97;;;1.00;;
8642;SDS011;4359;49.358;11.256;2023-07-13T09:53:52;4.25;;;1.10;;
8642;SDS011;4359;49.358;11.256;2023-07-13T09:56:21;6.05;;;1.02;;
8642;SDS011;4359;49.358;11.256;2023-07-13T09:59:01;7.03;;;1.23;;
8642;SDS011;4359;49.358;11.256;2023-07-13T10:01:33;5.65;;;1.00;;
8642;SDS011;4359;49.358;11.256;2023-07-13T10:04:10;5.30;;;1.02;;
8642;SDS011;4359;49.358;11.256;2023-07-13T10:06:38;3.45;;;1.23;;
8642;SDS011;4359;49.358;11.256;2023-07-13T10:09:08;4.18;;;1.10;;
8642;SDS011;4359;49.358;11.256;2023-07-13T10:11:34;4.05;;;0.90;;
8642;SDS011;4359;49.358;11.256;2023-07-13T10:14:15;3.22;;;1.00;;
8642;SDS011;4359;49.358;11.256;2023-07-13T10:16:48;3.97;;;0.90;;
8642;SDS011;4359;49.358;11.256;2023-07-13T10:19:25;6.18;;;1.58;;
8642;SDS011;4359;49.358;11.256;2023-07-13T10:22:01;6.10;;;1.20;;
8642;SDS011;4359;49.358;11.256;2023-07-13T10:24:35;2.55;;;0.90;;
8642;SDS011;4359;49.358;11.256;2023-07-13T10:32:38;5.15;;;1.27;;
8642;SDS011;4359;49.358;11.256;2023-07-13T10:35:04;3.08;;;0.90;;
8642;SDS011;4359;49.358;11.256;2023-07-13T10:37:47;7.22;;;0.98;;
8642;SDS011;4359;49.358;11.256;2023-07-13T10:40:21;5.57;;;0.88;;
8642;SDS011;4359;49.358;11.256;2023-07-13T10:42:52;4.07;;;1.05;;
8642;SDS011;4359;49.358;11.256;2023-07-13T10:45:22;6.45;;;1.05;;
8642;SDS011;4359;49.358;11.256;2023-07-13T10:47:49;5.10;;;1.33;;
8642;SDS011;4359;49.358;11.256;2023-07-13T10:50:22;3.05;;;0.88;;
8642;SDS011;4359;49.358;11.256;2023-07-13T10:52:53;8.93;;;1.10;;
8642;SDS011;4359;49.358;11.256;2023-07-13T10:55:37;4.80;;;0.90;;
8642;SDS011;4359;49.358;11.256;2023-07-13T10:58:21;5.00;;;1.00;;
8642;SDS011;4359;49.358;11.256;2023-07-13T11:03:34;4.72;;;1.02;;
8642;SDS011;4359;49.358;11.256;2023-07-13T11:06:12;3.28;;;0.90;;
8642;SDS011;4359;49.358;11.256;2023-07-13T11:11:47;4.43;;;1.13;;
8642;SDS011;4359;49.358;11.256;2023-07-13T11:16:53;5.15;;;1.00;;
8642;SDS011;4359;49.358;11.256;2023-07-13T11:22:10;5.07;;;1.30;;
8642;SDS011;4359;49.358;11.256;2023-07-13T11:24:50;5.43;;;1.30;;
8642;SDS011;4359;49.358;11.256;2023-07-13T11:35:37;3.55;;;1.00;;
8642;SDS011;4359;49.358;11.256;2023-07-13T11:38:12;7.85;;;1.20;;
8642;SDS011;4359;49.358;11.256;2023-07-13T11:40:42;6.75;;;0.93;;
8642;SDS011;4359;49.358;11.256;2023-07-13T11:43:11;3.22;;;1.00;;
8642;SDS011;4359;49.358;11.256;2023-07-13T11:45:39;3.58;;;0.95;;
8642;SDS011;4359;49.358;11.256;2023-07-13T11:48:05;3.78;;;1.10;;
8642;SDS011;4359;49.358;11.256;2023-07-13T11:50:42;5.43;;;1.13;;
8642;SDS011;4359;49.358;11.256;2023-07-13T11:53:14;7.15;;;1.33;;
8642;SDS011;4359;49.358;11.256;2023-07-13T11:55:40;5.40;;;1.00;;
8642;SDS011;4359;49.358;11.256;2023-07-13T11:58:07;3.72;;;1.27;;
8642;SDS011;4359;49.358;11.256;2023-07-13T12:00:34;3.28;;;1.00;;
8642;SDS011;4359;49.358;11.256;2023-07-13T12:03:03;5.15;;;1.05;;
8642;SDS011;4359;49.358;11.256;2023-07-13T12:05:30;2.97;;;1.00;;
8642;SDS011;4359;49.358;11.256;2023-07-13T12:07:57;5.32;;;1.10;;
8642;SDS011;4359;49.358;11.256;2023-07-13T12:10:26;4.32;;;1.08;;
8642;SDS011;4359;49.358;11.256;2023-07-13T12:13:04;2.78;;;0.80;;
8642;SDS011;4359;49.358;11.256;2023-07-13T12:15:42;3.28;;;0.93;;
8642;SDS011;4359;49.358;11.256;2023-07-13T12:18:14;3.45;;;1.20;;
8642;SDS011;4359;49.358;11.256;2023-07-13T12:20:43;2.97;;;1.00;;
8642;SDS011;4359;49.358;11.256;2023-07-13T12:23:14;3.63;;;1.10;;
8642;SDS011;4359;49.358;11.256;2023-07-13T12:25:51;4.55;;;1.05;;
8642;SDS011;4359;49.358;11.256;2023-07-13T12:34:07;2.85;;;0.90;;
8642;SDS011;4359;49.358;11.256;2023-07-13T12:36:37;8.27;;;1.40;;
8642;SDS011;4359;49.358;11.256;2023-07-13T12:39:15;2.60;;;0.93;;
8642;SDS011;4359;49.358;11.256;2023-07-13T12:41:41;3.88;;;1.00;;
8642;SDS011;4359;49.358;11.256;2023-07-13T12:44:10;3.13;;;1.00;;
8642;SDS011;4359;49.358;11.256;2023-07-13T12:46:37;9.00;;;1.33;;
8642;SDS011;4359;49.358;11.256;2023-07-13T12:49:05;2.65;;;1.00;;
8642;SDS011;4359;49.358;11.256;2023-07-13T12:51:32;4.72;;;1.10;;
8642;SDS011;4359;49.358;11.256;2023-07-13T12:54:05;4.10;;;0.85;;
8642;SDS011;4359;49.358;11.256;2023-07-13T12:56:41;4.43;;;1.23;;
8642;SDS011;4359;49.358;11.256;2023-07-13T12:59:09;3.42;;;0.90;;
8642;SDS011;4359;49.358;11.256;2023-07-13T13:01:43;2.72;;;1.00;;
8642;SDS011;4359;49.358;11.256;2023-07-13T13:04:09;3.58;;;1.30;;
8642;SDS011;4359;49.358;11.256;2023-07-13T13:06:37;7.25;;;1.10;;
8642;SDS011;4359;49.358;11.256;2023-07-13T13:09:05;3.78;;;0.98;;
8642;SDS011;4359;49.358;11.256;2023-07-13T13:11:36;3.53;;;0.90;;
8642;SDS011;4359;49.358;11.256;2023-07-13T13:14:02;6.15;;;1.17;;
8642;SDS011;4359;49.358;11.256;2023-07-13T13:16:30;4.47;;;1.00;;
8642;SDS011;4359;49.358;11.256;2023-07-13T13:21:45;3.67;;;1.17;;
8642;SDS011;4359;49.358;11.256;2023-07-13T13:24:16;4.25;;;0.90;;
8642;SDS011;4359;49.358;11.256;2023-07-13T13:26:43;3.70;;;1.15;;
8642;SDS011;4359;49.358;11.256;2023-07-13T13:29:13;3.70;;;1.20;;
8642;SDS011;4359;49.358;11.256;2023-07-13T13:31:41;2.85;;;1.00;;
8642;SDS011;4359;49.358;11.256;2023-07-13T13:34:11;6.70;;;1.38;;
8642;SDS011;4359;49.358;11.256;2023-07-13T13:36:38;3.50;;;1.10;;
8642;SDS011;4359;49.358;11.256;2023-07-13T13:39:08;5.50;;;1.20;;
8642;SDS011;4359;49.358;11.256;2023-07-13T13:41:46;4.55;;;1.33;;
8642;SDS011;4359;49.358;11.256;2023-07-13T13:44:14;2.95;;;1.10;;
8642;SDS011;4359;49.358;11.256;2023-07-13T13:46:41;3.50;;;0.90;;
8642;SDS011;4359;49.358;11.256;2023-07-13T13:49:12;7.22;;;1.65;;
8642;SDS011;4359;49.358;11.256;2023-07-13T13:51:45;4.68;;;1.42;;
8642;SDS011;4359;49.358;11.256;2023-07-13T13:54:12;5.10;;;1.30;;
8642;SDS011;4359;49.358;11.256;2023-07-13T13:56:41;3.95;;;1.10;;
8642;SDS011;4359;49.358;11.256;2023-07-13T13:59:07;10.93;;;1.20;;
8642;SDS011;4359;49.358;11.256;2023-07-13T14:01:34;6.70;;;1.38;;
8642;SDS011;4359;49.358;11.256;2023-07-13T14:04:00;5.32;;;1.30;;
8642;SDS011;4359;49.358;11.256;2023-07-13T14:06:26;5.18;;;0.90;;
8642;SDS011;4359;49.358;11.256;2023-07-13T14:08:53;4.93;;;1.10;;
8642;SDS011;4359;49.358;11.256;2023-07-13T14:11:20;4.22;;;1.00;;
8642;SDS011;4359;49.358;11.256;2023-07-13T14:13:51;4.40;;;1.25;;
8642;SDS011;4359;49.358;11.256;2023-07-13T14:16:20;4.35;;;1.40;;
8642;SDS011;4359;49.358;11.256;2023-07-13T14:18:47;4.50;;;1.20;;
8642;SDS011;4359;49.358;11.256;2023-07-13T14:21:18;8.70;;;1.10;;
8642;SDS011;4359;49.358;11.256;2023-07-13T14:23:48;3.90;;;1.38;;
8642;SDS011;4359;49.358;11.256;2023-07-13T14:26:15;5.43;;;1.10;;
8642;SDS011;4359;49.358;11.256;2023-07-13T14:28:52;4.00;;;1.20;;
8642;SDS011;4359;49.358;11.256;2023-07-13T14:31:21;7.32;;;1.42;;
8642;SDS011;4359;49.358;11.256;2023-07-13T14:33:48;15.70;;;1.58;;
8642;SDS011;4359;49.358;11.256;2023-07-13T14:39:24;6.38;;;1.00;;
8642;SDS011;4359;49.358;11.256;2023-07-13T14:41:51;6.30;;;1.38;;
8642;SDS011;4359;49.358;11.256;2023-07-13T14:44:19;3.28;;;1.10;;
8642;SDS011;4359;49.358;11.256;2023-07-13T14:46:48;3.33;;;1.10;;
8642;SDS011;4359;49.358;11.256;2023-07-13T14:49:32;7.13;;;1.20;;
8642;SDS011;4359;49.358;11.256;2023-07-13T14:52:16;3.17;;;1.10;;
8642;SDS011;4359;49.358;11.256;2023-07-13T14:54:43;5.53;;;1.20;;
8642;SDS011;4359;49.358;11.256;2023-07-13T14:57:11;6.65;;;1.63;;
8642;SDS011;4359;49.358;11.256;2023-07-13T14:59:38;4.10;;;1.10;;
8642;SDS011;4359;49.358;11.256;2023-07-13T15:02:11;6.90;;;1.33;;
8642;SDS011;4359;49.358;11.256;2023-07-13T15:04:41;5.07;;;0.95;;
8642;SDS011;4359;49.358;11.256;2023-07-13T15:07:07;5.75;;;1.10;;
8642;SDS011;4359;49.358;11.256;2023-07-13T15:09:36;6.47;;;1.30;;
8642;SDS011;4359;49.358;11.256;2023-07-13T15:12:02;4.95;;;1.30;;
8642;SDS011;4359;49.358;11.256;2023-07-13T15:14:29;4.05;;;1.10;;
8642;SDS011;4359;49.358;11.256;2023-07-13T15:16:58;5.10;;;0.95;;
8642;SDS011;4359;49.358;11.256;2023-07-13T15:19:24;3.28;;;1.20;;
8642;SDS011;4359;49.358;11.256;2023-07-13T15:21:51;4.50;;;1.00;;
8642;SDS011;4359;49.358;11.256;2023-07-13T15:24:19;3.00;;;0.95;;
8642;SDS011;4359;49.358;11.256;2023-07-13T15:26:46;3.63;;;1.23;;
8642;SDS011;4359;49.358;11.256;2023-07-13T15:29:14;3.10;;;1.00;;
8642;SDS011;4359;49.358;11.256;2023-07-13T15:31:40;4.55;;;1.23;;
8642;SDS011;4359;49.358;11.256;2023-07-13T15:34:14;3.03;;;1.00;;
8642;SDS011;4359;49.358;11.256;2023-07-13T15:36:41;5.20;;;1.30;;
8642;SDS011;4359;49.358;11.256;2023-07-13T15:39:08;6.97;;;1.27;;
8642;SDS011;4359;49.358;11.256;2023-07-13T15:41:41;3.85;;;0.82;;
8642;SDS011;4359;49.358;11.256;2023-07-13T15:44:19;3.45;;;1.15;;
8642;SDS011;4359;49.358;11.256;2023-07-13T15:46:56;3.85;;;1.20;;
8642;SDS011;4359;49.358;11.256;2023-07-13T15:49:25;5.78;;;1.50;;
8642;SDS011;4359;49.358;11.256;2023-07-13T15:51:50;3.53;;;0.90;;
8642;SDS011;4359;49.358;11.256;2023-07-13T15:54:17;8.00;;;1.13;;
8642;SDS011;4359;49.358;11.256;2023-07-13T15:56:45;2.78;;;1.15;;
8642;SDS011;4359;49.358;11.256;2023-07-13T15:59:18;3.00;;;0.80;;
8642;SDS011;4359;49.358;11.256;2023-07-13T16:01:43;4.65;;;1.20;;